createdAt,value
2019-05-22T00:03:41.955Z,28.80
2019-05-22T00:10:28.963Z,25.67
2019-05-22T00:17:15.674Z,28.33
2019-05-22T00:24:01.010Z,28.43
2019-05-22T00:30:49.637Z,25.90
2019-05-22T00:37:35.296Z,27.43
2019-05-22T00:44:22.366Z,30.87
2019-05-22T00:51:16.622Z,29.20
2019-05-22T00:58:08.464Z,26.80
2019-05-22T01:04:56.795Z,30.80
2019-05-22T01:11:45.264Z,29.13
2019-05-22T01:18:32.001Z,32.37
2019-05-22T01:25:20.840Z,30.87
2019-05-22T01:32:07.699Z,33.27
2019-05-22T01:38:56.093Z,35.27
2019-05-22T01:45:42.974Z,31.93
2019-05-22T01:52:28.506Z,36.87
2019-05-22T01:59:15.340Z,40.07
2019-05-22T02:06:01.583Z,37.40
2019-05-22T02:12:52.656Z,38.15
2019-05-22T02:19:39.008Z,36.57
2019-05-22T02:26:24.318Z,36.83
2019-05-22T02:33:11.336Z,34.60
2019-05-22T02:39:58.083Z,32.73
2019-05-22T02:46:43.361Z,33.23
2019-05-22T02:53:28.663Z,32.00
2019-05-22T03:00:16.952Z,35.63
2019-05-22T03:07:02.167Z,34.90
2019-05-22T03:14:01.131Z,36.00
2019-05-22T03:20:48.294Z,37.00
2019-05-22T03:27:45.797Z,35.70
2019-05-22T03:34:31.188Z,37.23
2019-05-22T03:41:18.205Z,36.48
2019-05-22T03:48:04.662Z,36.87
2019-05-22T03:54:49.610Z,37.60
2019-05-22T04:01:35.347Z,31.83
2019-05-22T04:08:25.542Z,33.07
2019-05-22T04:15:12.658Z,35.20
2019-05-22T04:21:58.094Z,35.07
2019-05-22T04:28:48.908Z,36.10
2019-05-22T04:35:35.120Z,32.73
2019-05-22T04:42:22.200Z,38.03
2019-05-22T04:49:08.721Z,35.17
2019-05-22T04:55:54.653Z,39.27
2019-05-22T05:02:40.500Z,34.77
2019-05-22T05:09:26.193Z,36.57
2019-05-22T05:16:11.883Z,37.93
2019-05-22T05:22:57.386Z,34.33
2019-05-22T05:29:42.803Z,26.63
2019-05-22T05:36:28.220Z,30.37
2019-05-22T05:43:15.294Z,27.30
2019-05-22T05:50:01.206Z,28.47
2019-05-22T05:56:50.302Z,30.33
2019-05-22T06:03:39.569Z,25.57
2019-05-22T06:10:28.254Z,29.27
2019-05-22T06:17:36.350Z,29.90
2019-05-22T06:24:33.110Z,21.90
2019-05-22T06:31:40.307Z,28.57
2019-05-22T06:38:48.770Z,21.73
2019-05-22T06:45:35.649Z,20.07
2019-05-22T06:52:22.538Z,27.87
2019-05-22T06:59:08.029Z,25.70
2019-05-22T07:05:54.776Z,22.13
2019-05-22T07:12:39.975Z,22.60
2019-05-22T07:19:25.286Z,24.03
2019-05-22T07:26:10.526Z,24.60
2019-05-22T07:32:55.762Z,21.17
2019-05-22T07:39:41.722Z,23.90
2019-05-22T07:46:30.508Z,25.63
2019-05-22T07:53:13.647Z,26.20
2019-05-22T07:59:59.155Z,23.97
2019-05-22T08:06:45.437Z,22.77
2019-05-22T08:13:32.306Z,23.62
2019-05-22T08:20:17.659Z,22.15
2019-05-22T08:27:04.867Z,17.92
2019-05-22T08:33:50.058Z,16.85
2019-05-22T08:40:36.740Z,16.50
2019-05-22T08:47:21.989Z,19.73
2019-05-22T08:54:07.633Z,17.10
2019-05-22T09:00:53.448Z,21.50
2019-05-22T09:07:40.100Z,18.40
2019-05-22T09:14:26.171Z,19.75
2019-05-22T09:21:12.204Z,18.07
2019-05-22T09:27:58.000Z,14.23
2019-05-22T09:34:44.417Z,14.18
2019-05-22T09:41:30.105Z,14.70
2019-05-22T09:48:15.704Z,13.83
2019-05-22T09:55:00.951Z,13.35
2019-05-22T10:01:45.964Z,15.75
2019-05-22T10:08:31.610Z,11.97
2019-05-22T10:15:17.257Z,13.40
2019-05-22T10:22:03.595Z,14.30
2019-05-22T10:28:49.109Z,11.75
2019-05-22T10:35:34.385Z,10.82
2019-05-22T10:42:25.191Z,10.23
2019-05-22T10:49:10.829Z,12.88
2019-05-22T10:55:56.289Z,11.30
2019-05-22T11:02:41.814Z,10.88
2019-05-22T11:09:28.812Z,11.60
2019-05-22T11:16:14.562Z,11.57
2019-05-22T11:23:01.015Z,10.48
2019-05-22T11:29:47.185Z,8.08
2019-05-22T11:36:32.258Z,9.13
2019-05-22T11:43:17.756Z,11.68
2019-05-22T11:50:03.008Z,7.15
2019-05-22T11:56:48.088Z,16.12
2019-05-22T12:03:34.715Z,9.95
2019-05-22T12:10:21.134Z,13.30
2019-05-22T12:17:07.893Z,13.47
2019-05-22T12:23:53.544Z,9.95
2019-05-22T12:30:39.421Z,7.72
2019-05-22T12:37:25.570Z,8.00
2019-05-22T12:44:11.146Z,9.83
2019-05-22T12:50:56.647Z,8.60
2019-05-22T12:57:41.916Z,8.05
2019-05-22T13:04:28.668Z,8.28
2019-05-22T13:11:14.936Z,7.30
2019-05-22T13:18:00.463Z,7.75
2019-05-22T13:24:46.012Z,7.72
2019-05-22T13:31:31.126Z,7.00
2019-05-22T13:38:18.030Z,6.95
2019-05-22T13:45:06.286Z,7.20
2019-05-22T13:51:51.739Z,8.35
2019-05-22T13:58:37.831Z,8.38
2019-05-22T14:05:25.796Z,6.72
2019-05-22T14:12:12.046Z,7.03
2019-05-22T14:18:57.067Z,8.20
2019-05-22T14:25:42.860Z,7.10
2019-05-22T14:32:30.046Z,4.50
2019-05-22T14:39:15.883Z,7.97
2019-05-22T14:46:01.155Z,6.95
2019-05-22T14:52:47.787Z,10.82
2019-05-22T14:59:35.230Z,7.60
2019-05-22T15:06:20.736Z,9.68
2019-05-22T15:13:06.113Z,7.12
2019-05-22T15:19:54.016Z,7.15
2019-05-22T15:26:39.250Z,5.30
2019-05-22T15:33:25.823Z,4.62
2019-05-22T15:40:11.986Z,5.62
2019-05-22T15:46:57.196Z,5.67
2019-05-22T15:53:46.028Z,6.17
2019-05-22T16:00:34.511Z,5.47
2019-05-22T16:07:21.372Z,7.20
2019-05-22T16:14:07.644Z,7.37
2019-05-22T16:20:54.511Z,6.00
2019-05-22T16:27:42.783Z,5.75
2019-05-22T16:34:30.015Z,7.65
2019-05-22T16:41:17.121Z,5.25
2019-05-22T16:48:03.473Z,5.22
2019-05-22T16:54:49.628Z,5.78
2019-05-22T17:01:56.191Z,4.35
2019-05-22T17:08:22.854Z,4.00
2019-05-22T17:15:10.811Z,4.87
2019-05-22T17:21:56.780Z,5.75
2019-05-22T17:28:41.956Z,4.75
2019-05-22T17:35:28.160Z,5.70
2019-05-22T17:42:16.455Z,4.67
2019-05-22T17:49:02.195Z,6.67
2019-05-22T17:55:48.906Z,6.03
2019-05-22T18:02:35.928Z,5.57
2019-05-22T18:09:21.351Z,9.13
2019-05-22T18:16:07.399Z,6.33
2019-05-22T18:22:52.689Z,8.43
2019-05-22T18:29:37.689Z,11.50
2019-05-22T18:36:22.781Z,5.75
2019-05-22T18:43:07.963Z,5.37
2019-05-22T18:49:53.139Z,5.40
2019-05-22T18:56:38.202Z,6.63
2019-05-22T19:03:23.458Z,6.03
2019-05-22T19:10:09.527Z,6.90
2019-05-22T19:16:54.723Z,5.80
2019-05-22T19:23:39.857Z,7.57
2019-05-22T19:30:26.319Z,8.65
2019-05-22T19:37:11.884Z,10.98
2019-05-22T19:43:57.495Z,7.43
2019-05-22T19:50:42.633Z,7.13
2019-05-22T19:57:28.027Z,11.77
2019-05-22T20:04:14.436Z,8.30
2019-05-22T20:10:59.443Z,9.83
2019-05-22T20:17:44.472Z,10.30
2019-05-22T20:24:29.958Z,10.53
2019-05-22T20:31:15.534Z,12.47
2019-05-22T20:38:01.739Z,13.63
2019-05-22T20:44:46.962Z,13.27
2019-05-22T20:51:32.290Z,12.90
2019-05-22T20:58:19.397Z,15.10
2019-05-22T21:05:12.437Z,15.30
2019-05-22T21:11:58.303Z,16.17
2019-05-22T21:18:45.610Z,17.10
2019-05-22T21:25:31.315Z,18.40
2019-05-22T21:32:17.084Z,16.70
2019-05-22T21:39:04.063Z,15.23
2019-05-22T21:45:49.390Z,19.07
2019-05-22T21:52:36.679Z,21.57
2019-05-22T21:59:21.687Z,18.73
2019-05-22T22:06:07.065Z,22.47
2019-05-22T22:12:53.601Z,22.53
2019-05-22T22:19:39.103Z,22.87
2019-05-22T22:26:26.550Z,20.63
2019-05-22T22:33:14.504Z,22.07
2019-05-22T22:40:01.584Z,22.37
2019-05-22T22:46:57.744Z,24.27
2019-05-22T22:53:43.695Z,25.20
2019-05-22T23:00:40.009Z,24.57
2019-05-22T23:07:28.875Z,20.53
2019-05-22T23:14:15.637Z,22.53
2019-05-22T23:21:00.600Z,22.83
2019-05-22T23:27:47.204Z,23.90
2019-05-22T23:34:32.565Z,22.80
2019-05-22T23:41:17.507Z,23.77
2019-05-22T23:48:07.200Z,25.30
2019-05-22T23:54:53.823Z,24.80
